createdAt,value
2023-08-15T00:00:55.813Z,97.13
2023-08-15T00:03:23.780Z,98.47
2023-08-15T00:05:51.619Z,97.70
2023-08-15T00:08:19.440Z,97.35
2023-08-15T00:10:48.590Z,97.31
2023-08-15T00:13:16.322Z,96.03
2023-08-15T00:15:44.104Z,95.97
2023-08-15T00:18:11.829Z,95.76
2023-08-15T00:20:39.606Z,95.71
2023-08-15T00:23:07.760Z,94.99
2023-08-15T00:25:35.612Z,95.06
2023-08-15T00:28:05.155Z,95.65
2023-08-15T00:30:34.073Z,96.14
2023-08-15T00:33:02.186Z,94.51
2023-08-15T00:35:29.937Z,94.36
2023-08-15T00:37:58.090Z,94.92
2023-08-15T00:40:25.879Z,95.80
2023-08-15T00:42:53.581Z,95.32
2023-08-15T00:45:23.626Z,97.03
2023-08-15T00:47:51.862Z,99.54
2023-08-15T00:50:19.827Z,100.00
2023-08-15T00:52:47.636Z,100.00
2023-08-15T00:55:15.506Z,100.00
2023-08-15T00:57:43.294Z,100.00
2023-08-15T01:00:12.857Z,99.89
2023-08-15T01:02:42.642Z,100.00
2023-08-15T01:05:10.539Z,99.18
2023-08-15T01:07:38.426Z,99.19
2023-08-15T01:10:07.498Z,98.90
2023-08-15T01:12:44.842Z,98.18
2023-08-15T01:15:17.856Z,97.54
2023-08-15T01:17:56.167Z,96.78
2023-08-15T01:20:28.823Z,96.71
2023-08-15T01:23:01.659Z,96.30
2023-08-15T01:25:33.980Z,96.21
2023-08-15T01:28:02.091Z,96.41
2023-08-15T01:30:29.855Z,95.69
2023-08-15T01:33:06.150Z,94.89
2023-08-15T01:35:39.968Z,94.45
2023-08-15T01:38:12.730Z,94.70
2023-08-15T01:40:45.941Z,95.18
2023-08-15T01:43:18.341Z,94.95
2023-08-15T01:45:46.264Z,94.69
2023-08-15T01:48:14.012Z,94.73
2023-08-15T01:50:42.001Z,95.32
2023-08-15T01:53:09.832Z,95.89
2023-08-15T01:55:37.569Z,96.25
2023-08-15T01:58:06.699Z,98.33
2023-08-15T02:00:34.388Z,100.00
2023-08-15T02:03:02.128Z,100.00
2023-08-15T02:05:29.970Z,100.00
2023-08-15T02:07:57.702Z,99.14
2023-08-15T02:10:25.457Z,97.18
2023-08-15T02:12:53.235Z,97.71
2023-08-15T02:15:22.357Z,97.21
2023-08-15T02:17:50.094Z,96.44
2023-08-15T02:20:17.969Z,95.13
2023-08-15T02:22:45.692Z,94.85
2023-08-15T02:25:13.488Z,94.65
2023-08-15T02:27:41.289Z,94.64
2023-08-15T02:30:10.390Z,94.30
2023-08-15T02:32:39.486Z,94.00
2023-08-15T02:35:08.459Z,94.06
2023-08-15T02:37:36.600Z,93.71
2023-08-15T02:40:07.268Z,93.53
2023-08-15T02:42:35.050Z,93.59
2023-08-15T02:45:02.839Z,94.11
2023-08-15T02:47:30.619Z,93.60
2023-08-15T02:49:59.697Z,96.24
2023-08-15T02:52:27.440Z,95.46
2023-08-15T02:54:55.207Z,95.19
2023-08-15T02:57:23.058Z,96.35
2023-08-15T02:59:51.178Z,97.67
2023-08-15T03:02:18.954Z,97.33
2023-08-15T03:04:46.768Z,96.59
2023-08-15T03:07:15.868Z,97.29
2023-08-15T03:09:43.640Z,95.56
2023-08-15T03:12:11.353Z,94.97
2023-08-15T03:14:39.112Z,96.43
2023-08-15T03:17:08.507Z,95.19
2023-08-15T03:19:36.367Z,96.90
2023-08-15T03:22:04.119Z,96.28
2023-08-15T03:24:33.206Z,98.19
2023-08-15T03:27:03.085Z,95.22
2023-08-15T03:29:32.189Z,94.67
2023-08-15T03:32:00.242Z,94.01
2023-08-15T03:34:28.096Z,95.96
2023-08-15T03:36:55.856Z,94.19
2023-08-15T03:39:23.561Z,94.63
2023-08-15T03:41:52.645Z,94.67
2023-08-15T03:44:20.322Z,94.05
2023-08-15T03:46:48.629Z,93.08
2023-08-15T03:49:16.453Z,93.51
2023-08-15T03:51:47.435Z,94.36
2023-08-15T03:54:15.656Z,94.91
2023-08-15T03:56:43.445Z,94.99
2023-08-15T03:59:12.638Z,95.26
2023-08-15T04:01:40.394Z,94.18
2023-08-15T04:04:08.649Z,95.45
2023-08-15T04:06:38.571Z,95.71
2023-08-15T04:09:07.400Z,94.69
2023-08-15T04:11:35.157Z,94.49
2023-08-15T04:14:02.872Z,93.74
2023-08-15T04:16:32.009Z,93.17
2023-08-15T04:18:59.835Z,92.89
2023-08-15T04:21:27.543Z,92.06
2023-08-15T04:23:55.278Z,91.47
2023-08-15T04:26:23.013Z,91.09
2023-08-15T04:28:50.710Z,90.15
2023-08-15T04:31:18.491Z,88.82
2023-08-15T04:33:47.635Z,88.38
2023-08-15T04:36:15.413Z,87.56
2023-08-15T04:38:43.145Z,86.72
2023-08-15T04:41:10.923Z,86.52
2023-08-15T04:43:39.317Z,85.90
2023-08-15T04:46:07.143Z,86.41
2023-08-15T04:48:34.882Z,87.55
2023-08-15T04:51:04.044Z,86.87
2023-08-15T04:53:32.072Z,87.56
2023-08-15T04:55:59.827Z,87.66
2023-08-15T04:58:27.557Z,87.93
2023-08-15T05:00:55.425Z,88.02
2023-08-15T05:03:22.180Z,88.31
2023-08-15T05:05:50.354Z,88.63
2023-08-15T05:08:19.450Z,89.12
2023-08-15T05:10:47.227Z,88.52
2023-08-15T05:13:14.925Z,88.51
2023-08-15T05:15:43.132Z,88.03
2023-08-15T05:18:12.346Z,87.34
2023-08-15T05:20:40.478Z,88.05
2023-08-15T05:23:08.243Z,88.10
2023-08-15T05:25:37.408Z,86.73
2023-08-15T05:28:05.971Z,86.16
2023-08-15T05:30:33.845Z,86.62
2023-08-15T05:33:02.110Z,87.02
2023-08-15T05:35:30.050Z,86.89
2023-08-15T05:37:57.943Z,86.34
2023-08-15T05:40:26.687Z,86.63
2023-08-15T05:42:55.873Z,85.73
2023-08-15T05:45:23.709Z,85.79
2023-08-15T05:47:51.914Z,85.66
2023-08-15T05:50:19.864Z,86.90
2023-08-15T05:52:47.617Z,87.51
2023-08-15T05:55:15.430Z,86.93
2023-08-15T05:57:43.186Z,87.53
2023-08-15T06:00:14.070Z,88.25
2023-08-15T06:02:42.101Z,87.32
2023-08-15T06:05:10.234Z,87.18
2023-08-15T06:07:38.004Z,87.86
2023-08-15T06:10:07.446Z,88.75
2023-08-15T06:12:35.313Z,88.66
2023-08-15T06:15:03.109Z,89.26
2023-08-15T06:17:32.232Z,87.91
2023-08-15T06:20:01.033Z,88.25
2023-08-15T06:22:28.735Z,88.69
2023-08-15T06:24:56.988Z,88.12
2023-08-15T06:27:26.376Z,87.24
2023-08-15T06:29:54.533Z,86.70
2023-08-15T06:32:29.125Z,86.03
2023-08-15T06:34:58.628Z,86.60
2023-08-15T06:37:28.831Z,86.14
2023-08-15T06:39:56.587Z,86.04
2023-08-15T06:42:24.313Z,84.98
2023-08-15T06:44:52.165Z,84.81
2023-08-15T06:47:20.440Z,84.33
2023-08-15T06:49:48.445Z,83.88
2023-08-15T06:52:17.615Z,82.55
2023-08-15T06:54:45.418Z,82.01
2023-08-15T06:57:13.211Z,81.55
2023-08-15T06:59:41.256Z,83.15
2023-08-15T07:02:09.229Z,81.61
2023-08-15T07:04:41.311Z,82.07
2023-08-15T07:07:09.576Z,82.74
2023-08-15T07:09:38.952Z,82.34
2023-08-15T07:12:07.138Z,82.07
2023-08-15T07:14:35.213Z,81.99
2023-08-15T07:17:03.498Z,81.50
2023-08-15T07:19:31.257Z,81.23
2023-08-15T07:22:00.773Z,80.99
2023-08-15T07:24:28.604Z,80.67
2023-08-15T07:26:57.717Z,80.58
2023-08-15T07:29:25.604Z,80.72
2023-08-15T07:31:55.063Z,79.08
2023-08-15T07:34:23.141Z,77.84
2023-08-15T07:36:51.954Z,79.06
2023-08-15T07:39:19.809Z,79.91
2023-08-15T07:41:47.631Z,79.10
2023-08-15T07:44:17.017Z,78.63
2023-08-15T07:46:45.773Z,76.99
2023-08-15T07:49:13.499Z,76.62
2023-08-15T07:51:41.557Z,77.25
2023-08-15T07:54:09.370Z,77.82
2023-08-15T07:56:37.084Z,75.58
2023-08-15T07:59:05.432Z,76.64
2023-08-15T08:01:34.632Z,76.99
2023-08-15T08:04:02.815Z,75.97
2023-08-15T08:09:01.587Z,74.36
2023-08-15T08:11:29.334Z,73.62
2023-08-15T08:13:57.042Z,73.32
2023-08-15T08:16:24.831Z,71.91
2023-08-15T08:18:54.000Z,70.24
2023-08-15T08:21:24.162Z,69.57
2023-08-15T08:23:51.902Z,70.10
2023-08-15T08:26:20.363Z,70.33
2023-08-15T08:28:48.696Z,70.41
2023-08-15T08:31:16.470Z,69.81
2023-08-15T08:33:45.271Z,67.67
2023-08-15T08:36:14.456Z,66.94
2023-08-15T08:38:42.237Z,67.24
2023-08-15T08:41:10.031Z,68.16
2023-08-15T08:43:37.999Z,67.83
2023-08-15T08:46:07.161Z,66.86
2023-08-15T08:48:39.054Z,66.82
2023-08-15T08:51:08.248Z,66.92
2023-08-15T08:53:38.385Z,66.10
2023-08-15T08:56:08.085Z,67.31
2023-08-15T08:58:42.342Z,68.17
2023-08-15T09:01:11.054Z,67.92
2023-08-15T09:03:40.330Z,68.58
2023-08-15T09:06:08.922Z,69.17
2023-08-15T09:08:38.044Z,66.93
2023-08-15T09:11:06.241Z,67.07
2023-08-15T09:13:33.968Z,67.79
2023-08-15T09:16:05.936Z,67.07
2023-08-15T09:18:35.512Z,67.80
2023-08-15T09:21:06.841Z,66.58
2023-08-15T09:23:34.983Z,66.99
2023-08-15T09:26:13.097Z,66.40
2023-08-15T09:28:43.233Z,65.69
2023-08-15T09:31:15.423Z,64.45
2023-08-15T09:33:43.796Z,62.76
2023-08-15T09:36:14.339Z,61.58
2023-08-15T09:38:42.068Z,61.43
2023-08-15T09:41:14.271Z,60.90
2023-08-15T09:43:51.429Z,61.24
2023-08-15T09:46:19.821Z,60.75
2023-08-15T09:48:48.810Z,58.33
2023-08-15T09:51:18.195Z,58.93
2023-08-15T09:53:50.275Z,60.25
2023-08-15T09:56:21.516Z,60.36
2023-08-15T09:58:50.075Z,60.61
2023-08-15T10:01:23.309Z,60.82
2023-08-15T10:03:52.158Z,60.67
2023-08-15T10:06:22.447Z,61.42
2023-08-15T10:08:51.167Z,61.39
2023-08-15T10:11:20.690Z,61.66
2023-08-15T10:13:51.471Z,61.67
2023-08-15T10:16:20.107Z,61.73
2023-08-15T10:18:56.065Z,61.50
2023-08-15T10:21:24.847Z,62.08
2023-08-15T10:23:54.848Z,61.91
2023-08-15T10:26:25.057Z,62.50
2023-08-15T10:28:53.652Z,63.57
2023-08-15T10:31:36.424Z,63.23
2023-08-15T10:34:04.768Z,63.41
2023-08-15T10:36:32.726Z,63.29
2023-08-15T10:39:06.430Z,63.45
2023-08-15T10:41:43.216Z,63.73
2023-08-15T10:44:11.541Z,61.83
2023-08-15T10:46:42.733Z,62.40
2023-08-15T10:49:12.615Z,62.87
2023-08-15T10:51:42.591Z,61.94
2023-08-15T10:54:12.106Z,61.17
2023-08-15T10:56:42.503Z,61.02
2023-08-15T10:59:12.873Z,61.46
2023-08-15T11:01:43.358Z,61.05
2023-08-15T11:04:15.747Z,60.33
2023-08-15T11:06:43.793Z,61.09
2023-08-15T11:09:12.141Z,62.16
2023-08-15T11:11:45.299Z,62.74
2023-08-15T11:14:18.410Z,64.30
2023-08-15T11:16:47.094Z,65.03
2023-08-15T11:19:16.812Z,66.38
2023-08-15T11:21:47.149Z,68.43
2023-08-15T11:24:15.346Z,69.88
2023-08-15T11:26:45.582Z,71.54
2023-08-15T11:29:15.186Z,72.33
2023-08-15T11:31:43.297Z,72.60
2023-08-15T11:34:14.421Z,74.00
2023-08-15T11:36:43.486Z,72.60
2023-08-15T11:39:13.693Z,72.44
2023-08-15T11:41:41.919Z,70.11
2023-08-15T11:44:11.046Z,69.21
2023-08-15T11:46:54.094Z,70.05
2023-08-15T11:49:24.233Z,70.64
2023-08-15T11:51:52.701Z,70.79
2023-08-15T11:54:20.591Z,69.39
2023-08-15T11:56:53.517Z,68.68
2023-08-15T11:59:23.281Z,68.22
2023-08-15T12:01:51.878Z,67.83
2023-08-15T12:04:19.937Z,68.15
2023-08-15T12:06:47.744Z,68.83
2023-08-15T12:09:15.571Z,69.45
2023-08-15T12:11:43.332Z,68.70
2023-08-15T12:14:22.136Z,68.63
2023-08-15T12:16:51.406Z,68.63
2023-08-15T12:19:22.488Z,68.74
2023-08-15T12:21:52.355Z,68.29
2023-08-15T12:24:20.305Z,69.63
2023-08-15T12:26:48.051Z,68.82
2023-08-15T12:29:18.184Z,68.28
2023-08-15T12:31:47.022Z,68.85
2023-08-15T12:34:17.899Z,68.76
2023-08-15T12:36:45.608Z,67.81
2023-08-15T12:39:13.354Z,67.92
2023-08-15T12:41:41.096Z,68.68
2023-08-15T12:44:08.984Z,69.76
2023-08-15T12:46:37.944Z,69.82
2023-08-15T12:49:06.100Z,69.00
2023-08-15T12:51:35.320Z,69.51
2023-08-15T12:54:03.159Z,69.24
2023-08-15T12:56:31.012Z,69.69
2023-08-15T12:58:58.797Z,70.27
2023-08-15T13:01:26.739Z,70.29
2023-08-15T13:03:54.986Z,71.13
2023-08-15T13:06:23.532Z,71.40
2023-08-15T13:08:52.834Z,70.90
2023-08-15T13:11:23.056Z,71.21
2023-08-15T13:13:52.561Z,70.98
2023-08-15T13:16:20.344Z,70.17
2023-08-15T13:18:50.466Z,69.99
2023-08-15T13:21:18.299Z,71.24
2023-08-15T13:23:46.668Z,70.61
2023-08-15T13:26:19.987Z,70.63
2023-08-15T13:28:48.661Z,70.25
2023-08-15T13:31:17.078Z,71.06
2023-08-15T13:33:45.377Z,70.97
2023-08-15T13:36:13.720Z,71.51
2023-08-15T13:38:41.448Z,72.69
2023-08-15T13:41:09.189Z,72.09
2023-08-15T13:43:38.537Z,72.21
2023-08-15T13:46:07.879Z,71.81
2023-08-15T13:48:38.943Z,71.11
2023-08-15T13:51:15.726Z,71.62
2023-08-15T13:53:45.830Z,71.03
2023-08-15T13:56:15.591Z,70.51
2023-08-15T13:58:45.702Z,70.46
2023-08-15T14:01:16.216Z,70.55
2023-08-15T14:03:44.158Z,71.32
2023-08-15T14:06:12.188Z,71.58
2023-08-15T14:11:13.931Z,70.60
2023-08-15T14:13:43.398Z,71.14
2023-08-15T14:16:12.707Z,71.41
2023-08-15T14:18:40.481Z,71.15
2023-08-15T14:21:13.490Z,72.12
2023-08-15T14:23:45.426Z,71.88
2023-08-15T14:26:13.680Z,70.83
2023-08-15T14:28:42.675Z,71.13
2023-08-15T14:31:12.413Z,71.75
2023-08-15T14:33:40.765Z,72.22
2023-08-15T14:36:08.830Z,72.78
2023-08-15T14:38:36.598Z,72.77
2023-08-15T14:41:05.664Z,73.24
2023-08-15T14:43:33.806Z,73.22
2023-08-15T14:46:01.672Z,73.04
2023-08-15T14:48:31.178Z,73.64
2023-08-15T14:50:58.946Z,74.01
2023-08-15T14:53:29.148Z,74.21
2023-08-15T14:55:58.098Z,74.77
2023-08-15T14:58:25.807Z,74.84
2023-08-15T15:00:55.258Z,74.27
2023-08-15T15:03:23.148Z,73.29
2023-08-15T15:05:54.729Z,72.36
2023-08-15T15:08:23.879Z,72.43
2023-08-15T15:10:53.933Z,72.51
2023-08-15T15:13:21.685Z,72.82
2023-08-15T15:15:54.408Z,73.41
2023-08-15T15:18:22.854Z,73.76
2023-08-15T15:20:52.064Z,74.10
2023-08-15T15:23:19.987Z,74.62
2023-08-15T15:25:48.283Z,75.54
2023-08-15T15:28:16.348Z,75.52
2023-08-15T15:30:44.180Z,76.14
2023-08-15T15:33:13.631Z,76.50
2023-08-15T15:35:42.641Z,76.95
2023-08-15T15:38:12.537Z,77.34
2023-08-15T15:40:40.299Z,76.78
2023-08-15T15:43:08.057Z,76.73
2023-08-15T15:45:37.352Z,76.71
2023-08-15T15:48:06.572Z,76.21
2023-08-15T15:50:35.000Z,76.56
2023-08-15T15:53:05.890Z,76.51
2023-08-15T15:55:36.020Z,76.28
2023-08-15T15:58:03.851Z,76.37
2023-08-15T16:00:33.643Z,76.39
2023-08-15T16:03:01.423Z,76.40
2023-08-15T16:05:31.595Z,76.70
2023-08-15T16:08:00.405Z,76.21
2023-08-15T16:10:28.325Z,76.23
2023-08-15T16:12:58.926Z,75.79
2023-08-15T16:15:26.843Z,75.27
2023-08-15T16:17:54.829Z,75.46
2023-08-15T16:20:22.661Z,75.27
2023-08-15T16:22:50.449Z,75.55
2023-08-15T16:25:18.289Z,75.32
2023-08-15T16:27:47.474Z,75.45
2023-08-15T16:30:19.001Z,75.20
2023-08-15T16:32:50.959Z,75.49
2023-08-15T16:35:18.970Z,75.48
2023-08-15T16:37:47.165Z,75.65
2023-08-15T16:40:15.046Z,75.77
2023-08-15T16:42:43.121Z,75.82
2023-08-15T16:45:11.809Z,75.70
2023-08-15T16:47:41.089Z,76.11
2023-08-15T16:50:09.686Z,76.04
2023-08-15T16:52:37.439Z,76.14
2023-08-15T16:55:07.416Z,76.81
2023-08-15T16:57:35.164Z,76.09
2023-08-15T17:00:02.980Z,76.08
2023-08-15T17:02:32.981Z,76.17
2023-08-15T17:05:04.469Z,75.62
2023-08-15T17:07:34.630Z,75.99
2023-08-15T17:10:02.469Z,76.20
2023-08-15T17:12:30.246Z,76.39
2023-08-15T17:14:58.009Z,75.92
2023-08-15T17:17:27.387Z,76.14
2023-08-15T17:19:56.947Z,76.47
2023-08-15T17:22:26.440Z,76.69
2023-08-15T17:24:54.265Z,76.67
2023-08-15T17:27:22.227Z,76.64
2023-08-15T17:29:50.010Z,76.54
2023-08-15T17:32:18.643Z,76.78
2023-08-15T17:34:48.537Z,76.77
2023-08-15T17:37:16.339Z,77.11
2023-08-15T17:39:45.515Z,77.33
2023-08-15T17:42:13.510Z,77.39
2023-08-15T17:44:41.544Z,77.77
2023-08-15T17:47:09.598Z,77.62
2023-08-15T17:49:37.374Z,79.47
2023-08-15T17:52:05.898Z,79.27
2023-08-15T17:54:33.733Z,78.78
2023-08-15T17:57:04.443Z,79.58
2023-08-15T17:59:32.445Z,79.76
2023-08-15T18:02:01.286Z,79.99
2023-08-15T18:04:29.270Z,80.98
2023-08-15T18:06:57.148Z,81.30
2023-08-15T18:09:26.137Z,81.26
2023-08-15T18:11:54.063Z,81.62
2023-08-15T18:14:24.841Z,81.53
2023-08-15T18:16:52.587Z,81.14
2023-08-15T18:19:20.394Z,81.39
2023-08-15T18:21:50.334Z,81.31
2023-08-15T18:24:18.764Z,82.07
2023-08-15T18:26:46.849Z,82.04
2023-08-15T18:29:14.693Z,81.77
2023-08-15T18:31:43.801Z,81.65
2023-08-15T18:34:11.541Z,81.88
2023-08-15T18:36:39.419Z,81.80
2023-08-15T18:39:10.172Z,81.60
2023-08-15T18:41:38.261Z,81.58
2023-08-15T18:44:09.037Z,81.54
2023-08-15T18:46:42.808Z,81.66
2023-08-15T18:49:13.901Z,81.99
2023-08-15T18:51:41.943Z,81.84
2023-08-15T18:54:09.960Z,82.11
2023-08-15T18:56:39.067Z,83.26
2023-08-15T18:59:08.645Z,83.33
2023-08-15T19:01:36.519Z,83.37
2023-08-15T19:04:04.668Z,83.35
2023-08-15T19:06:34.066Z,83.31
2023-08-15T19:09:01.805Z,82.83
2023-08-15T19:11:29.794Z,83.06
2023-08-15T19:13:57.762Z,83.85
2023-08-15T19:16:25.991Z,83.95
2023-08-15T19:18:54.054Z,84.03
2023-08-15T19:21:21.781Z,84.50
2023-08-15T19:23:50.922Z,84.61
2023-08-15T19:26:18.640Z,85.11
2023-08-15T19:28:46.408Z,84.72
2023-08-15T19:31:16.539Z,84.93
2023-08-15T19:33:44.337Z,85.78
2023-08-15T19:36:12.216Z,86.46
2023-08-15T19:38:40.002Z,87.38
2023-08-15T19:41:11.993Z,87.35
2023-08-15T19:43:40.528Z,86.78
2023-08-15T19:46:08.558Z,87.39
2023-08-15T19:48:36.676Z,88.13
2023-08-15T19:51:05.027Z,88.38
2023-08-15T19:53:32.793Z,88.21
2023-08-15T19:56:00.566Z,87.34
2023-08-15T19:58:30.816Z,87.91
2023-08-15T20:00:58.862Z,87.62
2023-08-15T20:03:26.731Z,86.67
2023-08-15T20:05:54.494Z,86.30
2023-08-15T20:08:22.208Z,86.14
2023-08-15T20:10:54.429Z,85.88
2023-08-15T20:13:25.019Z,85.99
2023-08-15T20:15:56.503Z,85.64
2023-08-15T20:18:25.652Z,85.28
2023-08-15T20:20:54.055Z,85.56
2023-08-15T20:23:22.274Z,85.47
2023-08-15T20:25:50.032Z,85.44
2023-08-15T20:28:19.071Z,85.61
2023-08-15T20:30:47.473Z,86.76
2023-08-15T20:33:16.729Z,87.39
2023-08-15T20:35:44.482Z,88.52
2023-08-15T20:38:12.337Z,88.29
2023-08-15T20:40:41.626Z,87.91
2023-08-15T20:43:09.657Z,87.29
2023-08-15T20:45:38.784Z,87.38
2023-08-15T20:48:07.430Z,86.61
2023-08-15T20:50:36.628Z,86.95
2023-08-15T20:53:04.456Z,87.18
2023-08-15T20:55:32.215Z,86.96
2023-08-15T20:57:59.967Z,87.42
2023-08-15T21:00:27.956Z,87.42
2023-08-15T21:02:55.682Z,87.08
2023-08-15T21:05:23.394Z,86.86
2023-08-15T21:07:52.569Z,86.71
2023-08-15T21:10:20.331Z,86.91
2023-08-15T21:12:48.140Z,87.08
2023-08-15T21:15:16.246Z,86.87
2023-08-15T21:17:44.040Z,87.09
2023-08-15T21:20:12.663Z,88.00
2023-08-15T21:22:43.735Z,89.87
2023-08-15T21:25:12.971Z,91.12
2023-08-15T21:27:40.687Z,91.32
2023-08-15T21:30:09.670Z,91.22
2023-08-15T21:32:37.467Z,90.35
2023-08-15T21:35:05.825Z,89.22
2023-08-15T21:37:33.610Z,88.10
2023-08-15T21:40:01.352Z,88.04
2023-08-15T21:42:32.056Z,89.02
2023-08-15T21:45:01.332Z,88.76
2023-08-15T21:47:29.050Z,89.80
2023-08-15T21:49:56.772Z,91.54
2023-08-15T21:52:24.512Z,91.74
2023-08-15T21:54:52.275Z,90.82
2023-08-15T21:57:20.206Z,90.67
2023-08-15T21:59:49.485Z,91.23
2023-08-15T22:02:17.686Z,91.42
2023-08-15T22:04:46.689Z,92.52
2023-08-15T22:07:14.441Z,91.48
2023-08-15T22:09:42.255Z,90.87
2023-08-15T22:12:10.133Z,90.26
2023-08-15T22:14:37.818Z,90.67
2023-08-15T22:17:07.032Z,90.21
2023-08-15T22:19:34.849Z,90.39
2023-08-15T22:22:02.569Z,90.48
2023-08-15T22:24:30.342Z,90.30
2023-08-15T22:26:58.096Z,91.22
2023-08-15T22:29:25.909Z,90.54
2023-08-15T22:31:53.696Z,92.81
2023-08-15T22:34:22.804Z,94.62
2023-08-15T22:36:50.586Z,94.59
2023-08-15T22:39:18.380Z,93.38
2023-08-15T22:41:46.124Z,93.39
2023-08-15T22:44:13.858Z,93.79
2023-08-15T22:46:41.648Z,93.39
2023-08-15T22:49:09.366Z,94.69
2023-08-15T22:51:38.487Z,93.81
2023-08-15T22:54:07.209Z,94.71
2023-08-15T22:56:35.005Z,94.93
2023-08-15T22:59:02.713Z,93.88
2023-08-15T23:01:30.542Z,93.24
2023-08-15T23:03:58.340Z,92.64
2023-08-15T23:06:26.109Z,92.49
2023-08-15T23:08:55.266Z,91.88
2023-08-15T23:11:23.746Z,91.10
2023-08-15T23:13:51.457Z,91.01
2023-08-15T23:16:19.155Z,91.88
2023-08-15T23:18:46.968Z,91.94
2023-08-15T23:21:14.678Z,90.67
2023-08-15T23:23:44.142Z,90.75
2023-08-15T23:26:13.253Z,90.67
2023-08-15T23:28:41.038Z,89.59
2023-08-15T23:31:12.372Z,90.69
2023-08-15T23:33:40.633Z,91.06
2023-08-15T23:36:08.403Z,91.97
2023-08-15T23:38:36.109Z,91.54
2023-08-15T23:41:04.180Z,91.61
2023-08-15T23:43:33.277Z,91.21
2023-08-15T23:46:00.968Z,90.64
2023-08-15T23:48:28.916Z,91.03
2023-08-15T23:50:56.689Z,90.36
2023-08-15T23:53:24.385Z,90.33
2023-08-15T23:55:52.321Z,89.81
2023-08-15T23:58:20.276Z,90.76
